Terminal Aerodrome Forecast
Issued by NWS Dallas/Fort Worth, TX

Home | Current Version | Previous Version | Text Only | Print | Product List | Glossary On
Versions: 1 2 3 4 5 6 7 8 9 10 11 12 13 14 15 16 17 18 19 20 21 22 23 24 25
000
FTUS44 KFWD 282300
TAFDFW
TAF
KDFW 282326Z 2900/3006 18012KT P6SM BKN250
     FM290900 23008KT P6SM SCT250
     FM291200 33013KT P6SM SCT250
     FM291600 01016G26KT P6SM SCT250
     FM300100 01013KT P6SM SCT250=

USA.gov is the U.S. government's official web portal to all federal, state and local government web resources and services.